sensor_id;sensor_type;location;lat;lon;timestamp;temperature;humidity
21811;DHT22;11067;48.788;9.208;2023-07-13T00:01:43;21.50;99.90
21811;DHT22;11067;48.788;9.208;2023-07-13T00:04:09;21.40;99.90
21811;DHT22;11067;48.788;9.208;2023-07-13T00:06:34;21.30;99.90
21811;DHT22;11067;48.788;9.208;2023-07-13T00:09:00;21.20;99.90
21811;DHT22;11067;48.788;9.208;2023-07-13T00:11:26;21.30;99.90
21811;DHT22;11067;48.788;9.208;2023-07-13T00:13:51;21.20;99.90
21811;DHT22;11067;48.788;9.208;2023-07-13T00:16:17;21.10;99.90
21811;DHT22;11067;48.788;9.208;2023-07-13T00:18:44;21.00;99.90
21811;DHT22;11067;48.788;9.208;2023-07-13T00:21:10;21.00;99.90
21811;DHT22;11067;48.788;9.208;2023-07-13T00:23:37;20.90;99.90
21811;DHT22;11067;48.788;9.208;2023-07-13T00:26:04;20.90;99.90
21811;DHT22;11067;48.788;9.208;2023-07-13T00:28:31;20.90;99.90
21811;DHT22;11067;48.788;9.208;2023-07-13T00:30:57;20.80;99.90
21811;DHT22;11067;48.788;9.208;2023-07-13T00:33:22;20.80;99.90
21811;DHT22;11067;48.788;9.208;2023-07-13T00:35:49;20.80;99.90
21811;DHT22;11067;48.788;9.208;2023-07-13T00:38:15;20.70;99.90
21811;DHT22;11067;48.788;9.208;2023-07-13T00:40:41;20.70;99.90
21811;DHT22;11067;48.788;9.208;2023-07-13T00:43:30;20.60;99.90
21811;DHT22;11067;48.788;9.208;2023-07-13T00:48:34;20.50;99.90
21811;DHT22;11067;48.788;9.208;2023-07-13T00:51:00;20.40;99.90
21811;DHT22;11067;48.788;9.208;2023-07-13T00:53:29;20.40;99.90
21811;DHT22;11067;48.788;9.208;2023-07-13T00:55:56;20.30;99.90
21811;DHT22;11067;48.788;9.208;2023-07-13T00:58:24;20.30;99.90
21811;DHT22;11067;48.788;9.208;2023-07-13T01:00:51;20.30;99.90
21811;DHT22;11067;48.788;9.208;2023-07-13T01:03:17;20.20;99.90
21811;DHT22;11067;48.788;9.208;2023-07-13T01:05:43;20.20;99.90
21811;DHT22;11067;48.788;9.208;2023-07-13T01:08:09;20.20;99.90
21811;DHT22;11067;48.788;9.208;2023-07-13T01:10:35;20.20;99.90
21811;DHT22;11067;48.788;9.208;2023-07-13T01:13:06;20.20;99.90
21811;DHT22;11067;48.788;9.208;2023-07-13T01:18:03;20.10;99.90
21811;DHT22;11067;48.788;9.208;2023-07-13T01:20:28;20.10;99.90
21811;DHT22;11067;48.788;9.208;2023-07-13T01:22:54;20.10;99.90
21811;DHT22;11067;48.788;9.208;2023-07-13T01:25:20;20.00;99.90
21811;DHT22;11067;48.788;9.208;2023-07-13T01:27:46;19.90;99.90
21811;DHT22;11067;48.788;9.208;2023-07-13T01:30:12;20.00;99.90
21811;DHT22;11067;48.788;9.208;2023-07-13T01:32:37;20.00;99.90
21811;DHT22;11067;48.788;9.208;2023-07-13T01:35:07;19.90;99.90
21811;DHT22;11067;48.788;9.208;2023-07-13T01:37:32;20.00;99.90
21811;DHT22;11067;48.788;9.208;2023-07-13T01:40:02;20.10;99.90
21811;DHT22;11067;48.788;9.208;2023-07-13T01:42:28;20.10;99.90
21811;DHT22;11067;48.788;9.208;2023-07-13T01:44:54;20.00;99.90
21811;DHT22;11067;48.788;9.208;2023-07-13T01:47:19;19.90;99.90
21811;DHT22;11067;48.788;9.208;2023-07-13T01:49:45;19.90;99.90
21811;DHT22;11067;48.788;9.208;2023-07-13T01:52:12;20.10;99.90
21811;DHT22;11067;48.788;9.208;2023-07-13T01:54:38;19.90;99.90
21811;DHT22;11067;48.788;9.208;2023-07-13T01:57:03;19.80;99.90
21811;DHT22;11067;48.788;9.208;2023-07-13T01:59:29;19.80;99.90
21811;DHT22;11067;48.788;9.208;2023-07-13T02:01:54;19.70;99.90
21811;DHT22;11067;48.788;9.208;2023-07-13T02:04:20;19.70;99.90
21811;DHT22;11067;48.788;9.208;2023-07-13T02:06:45;19.70;99.90
21811;DHT22;11067;48.788;9.208;2023-07-13T02:09:11;19.60;99.90
21811;DHT22;11067;48.788;9.208;2023-07-13T02:11:36;19.60;99.90
21811;DHT22;11067;48.788;9.208;2023-07-13T02:14:03;19.50;99.90
21811;DHT22;11067;48.788;9.208;2023-07-13T02:16:29;19.50;99.90
21811;DHT22;11067;48.788;9.208;2023-07-13T02:18:55;19.50;99.90
21811;DHT22;11067;48.788;9.208;2023-07-13T02:21:22;19.60;99.90
21811;DHT22;11067;48.788;9.208;2023-07-13T02:23:48;19.50;99.90
21811;DHT22;11067;48.788;9.208;2023-07-13T02:26:14;19.50;99.90
21811;DHT22;11067;48.788;9.208;2023-07-13T02:28:40;19.50;99.90
21811;DHT22;11067;48.788;9.208;2023-07-13T02:31:07;19.40;99.90
21811;DHT22;11067;48.788;9.208;2023-07-13T02:33:33;19.30;99.90
21811;DHT22;11067;48.788;9.208;2023-07-13T02:35:59;19.10;99.90
21811;DHT22;11067;48.788;9.208;2023-07-13T02:38:24;19.10;99.90
21811;DHT22;11067;48.788;9.208;2023-07-13T02:40:50;19.20;99.90
21811;DHT22;11067;48.788;9.208;2023-07-13T02:43:15;19.20;99.90
21811;DHT22;11067;48.788;9.208;2023-07-13T02:45:45;19.10;99.90
21811;DHT22;11067;48.788;9.208;2023-07-13T02:48:10;19.10;99.90
21811;DHT22;11067;48.788;9.208;2023-07-13T02:50:36;19.00;99.90
21811;DHT22;11067;48.788;9.208;2023-07-13T02:53:01;18.90;99.90
21811;DHT22;11067;48.788;9.208;2023-07-13T02:55:27;19.00;99.90
21811;DHT22;11067;48.788;9.208;2023-07-13T02:57:52;19.00;99.90
21811;DHT22;11067;48.788;9.208;2023-07-13T03:00:19;18.90;99.90
21811;DHT22;11067;48.788;9.208;2023-07-13T03:02:45;19.00;99.90
21811;DHT22;11067;48.788;9.208;2023-07-13T03:05:11;18.90;99.90
21811;DHT22;11067;48.788;9.208;2023-07-13T03:07:38;19.00;99.90
21811;DHT22;11067;48.788;9.208;2023-07-13T03:10:05;18.90;99.90
21811;DHT22;11067;48.788;9.208;2023-07-13T03:12:32;19.00;99.90
21811;DHT22;11067;48.788;9.208;2023-07-13T03:14:57;19.00;99.90
21811;DHT22;11067;48.788;9.208;2023-07-13T03:17:23;19.00;99.90
21811;DHT22;11067;48.788;9.208;2023-07-13T03:19:48;19.00;99.90
21811;DHT22;11067;48.788;9.208;2023-07-13T03:22:18;19.10;99.90
21811;DHT22;11067;48.788;9.208;2023-07-13T03:24:44;19.10;99.90
21811;DHT22;11067;48.788;9.208;2023-07-13T03:27:10;19.20;99.90
21811;DHT22;11067;48.788;9.208;2023-07-13T03:29:35;19.30;99.90
21811;DHT22;11067;48.788;9.208;2023-07-13T03:32:01;19.30;99.90
21811;DHT22;11067;48.788;9.208;2023-07-13T03:34:27;19.30;99.90
21811;DHT22;11067;48.788;9.208;2023-07-13T03:36:56;19.40;99.90
21811;DHT22;11067;48.788;9.208;2023-07-13T03:39:22;19.40;99.90
21811;DHT22;11067;48.788;9.208;2023-07-13T03:41:48;19.50;99.90
21811;DHT22;11067;48.788;9.208;2023-07-13T03:44:15;19.40;99.90
21811;DHT22;11067;48.788;9.208;2023-07-13T03:46:41;19.40;99.90
21811;DHT22;11067;48.788;9.208;2023-07-13T03:49:08;19.40;99.90
21811;DHT22;11067;48.788;9.208;2023-07-13T03:51:34;19.40;99.90
21811;DHT22;11067;48.788;9.208;2023-07-13T03:54:00;19.40;99.90
21811;DHT22;11067;48.788;9.208;2023-07-13T03:56:25;19.40;99.90
21811;DHT22;11067;48.788;9.208;2023-07-13T03:58:51;19.40;99.90
21811;DHT22;11067;48.788;9.208;2023-07-13T04:01:19;19.40;99.90
21811;DHT22;11067;48.788;9.208;2023-07-13T04:03:45;19.50;99.90
21811;DHT22;11067;48.788;9.208;2023-07-13T04:06:20;19.50;99.90
21811;DHT22;11067;48.788;9.208;2023-07-13T04:08:52;19.50;99.90
21811;DHT22;11067;48.788;9.208;2023-07-13T04:11:20;19.40;99.90
21811;DHT22;11067;48.788;9.208;2023-07-13T04:13:46;19.40;99.90
21811;DHT22;11067;48.788;9.208;2023-07-13T04:16:13;19.50;99.90
21811;DHT22;11067;48.788;9.208;2023-07-13T04:18:39;19.50;99.90
21811;DHT22;11067;48.788;9.208;2023-07-13T04:21:05;19.50;99.90
21811;DHT22;11067;48.788;9.208;2023-07-13T04:23:30;19.50;99.90
21811;DHT22;11067;48.788;9.208;2023-07-13T04:25:56;19.50;99.90
21811;DHT22;11067;48.788;9.208;2023-07-13T04:28:23;19.60;99.90
21811;DHT22;11067;48.788;9.208;2023-07-13T04:30:49;19.60;99.90
21811;DHT22;11067;48.788;9.208;2023-07-13T04:33:15;19.50;99.90
21811;DHT22;11067;48.788;9.208;2023-07-13T04:35:43;19.60;99.90
21811;DHT22;11067;48.788;9.208;2023-07-13T04:38:08;19.70;99.90
21811;DHT22;11067;48.788;9.208;2023-07-13T04:40:37;19.70;99.90
21811;DHT22;11067;48.788;9.208;2023-07-13T04:43:02;19.70;99.90
21811;DHT22;11067;48.788;9.208;2023-07-13T04:45:28;19.70;99.90
21811;DHT22;11067;48.788;9.208;2023-07-13T04:47:53;19.70;99.90
21811;DHT22;11067;48.788;9.208;2023-07-13T04:50:19;19.60;99.90
21811;DHT22;11067;48.788;9.208;2023-07-13T04:52:49;19.60;99.90
21811;DHT22;11067;48.788;9.208;2023-07-13T04:55:15;19.50;99.90
21811;DHT22;11067;48.788;9.208;2023-07-13T04:57:41;19.60;99.90
21811;DHT22;11067;48.788;9.208;2023-07-13T05:00:07;19.70;99.90
21811;DHT22;11067;48.788;9.208;2023-07-13T05:02:33;19.60;99.90
21811;DHT22;11067;48.788;9.208;2023-07-13T05:05:00;19.60;99.90
21811;DHT22;11067;48.788;9.208;2023-07-13T05:07:26;19.50;99.90
21811;DHT22;11067;48.788;9.208;2023-07-13T05:09:52;19.70;99.90
21811;DHT22;11067;48.788;9.208;2023-07-13T05:12:17;19.60;99.90
21811;DHT22;11067;48.788;9.208;2023-07-13T05:14:43;19.60;99.90
21811;DHT22;11067;48.788;9.208;2023-07-13T05:17:09;19.80;99.90
21811;DHT22;11067;48.788;9.208;2023-07-13T05:19:34;19.90;99.90
21811;DHT22;11067;48.788;9.208;2023-07-13T05:22:00;20.00;99.90
21811;DHT22;11067;48.788;9.208;2023-07-13T05:24:26;20.10;99.90
21811;DHT22;11067;48.788;9.208;2023-07-13T05:26:52;20.30;99.90
21811;DHT22;11067;48.788;9.208;2023-07-13T05:29:19;20.30;99.90
21811;DHT22;11067;48.788;9.208;2023-07-13T05:31:44;20.00;99.90
21811;DHT22;11067;48.788;9.208;2023-07-13T05:34:10;20.10;99.90
21811;DHT22;11067;48.788;9.208;2023-07-13T05:36:35;20.20;99.90
21811;DHT22;11067;48.788;9.208;2023-07-13T05:39:01;20.10;99.90
21811;DHT22;11067;48.788;9.208;2023-07-13T05:41:27;20.20;99.90
21811;DHT22;11067;48.788;9.208;2023-07-13T05:43:53;20.30;99.90
21811;DHT22;11067;48.788;9.208;2023-07-13T05:46:18;20.30;99.90
21811;DHT22;11067;48.788;9.208;2023-07-13T05:48:44;20.40;99.90
21811;DHT22;11067;48.788;9.208;2023-07-13T05:51:10;20.30;99.90
21811;DHT22;11067;48.788;9.208;2023-07-13T05:53:35;20.10;99.90
21811;DHT22;11067;48.788;9.208;2023-07-13T05:56:01;20.20;99.90
21811;DHT22;11067;48.788;9.208;2023-07-13T05:58:27;20.10;99.90
21811;DHT22;11067;48.788;9.208;2023-07-13T06:01:00;20.20;99.90
21811;DHT22;11067;48.788;9.208;2023-07-13T06:03:26;20.20;99.90
21811;DHT22;11067;48.788;9.208;2023-07-13T06:05:51;20.30;99.90
21811;DHT22;11067;48.788;9.208;2023-07-13T06:08:17;20.20;99.90
21811;DHT22;11067;48.788;9.208;2023-07-13T06:10:43;20.20;99.90
21811;DHT22;11067;48.788;9.208;2023-07-13T06:13:08;20.30;99.90
21811;DHT22;11067;48.788;9.208;2023-07-13T06:15:34;20.60;99.90
21811;DHT22;11067;48.788;9.208;2023-07-13T06:17:59;21.00;99.90
21811;DHT22;11067;48.788;9.208;2023-07-13T06:20:25;21.50;99.90
21811;DHT22;11067;48.788;9.208;2023-07-13T06:22:50;21.50;99.90
21811;DHT22;11067;48.788;9.208;2023-07-13T06:25:17;21.80;99.90
21811;DHT22;11067;48.788;9.208;2023-07-13T06:27:42;21.90;99.90
21811;DHT22;11067;48.788;9.208;2023-07-13T06:30:09;22.30;99.90
21811;DHT22;11067;48.788;9.208;2023-07-13T06:32:35;22.50;99.90
21811;DHT22;11067;48.788;9.208;2023-07-13T06:35:00;23.30;99.90
21811;DHT22;11067;48.788;9.208;2023-07-13T06:37:26;23.30;99.90
21811;DHT22;11067;48.788;9.208;2023-07-13T06:39:51;22.50;99.90
21811;DHT22;11067;48.788;9.208;2023-07-13T06:42:17;23.00;99.90
21811;DHT22;11067;48.788;9.208;2023-07-13T06:44:43;23.50;99.90
21811;DHT22;11067;48.788;9.208;2023-07-13T06:47:08;23.60;99.90
21811;DHT22;11067;48.788;9.208;2023-07-13T06:49:34;24.30;99.00
21811;DHT22;11067;48.788;9.208;2023-07-13T06:51:59;24.40;98.90
21811;DHT22;11067;48.788;9.208;2023-07-13T06:54:25;24.20;97.70
21811;DHT22;11067;48.788;9.208;2023-07-13T06:56:50;23.50;99.00
21811;DHT22;11067;48.788;9.208;2023-07-13T06:59:16;23.90;98.60
21811;DHT22;11067;48.788;9.208;2023-07-13T07:01:41;23.60;99.90
21811;DHT22;11067;48.788;9.208;2023-07-13T07:04:07;23.50;99.50
21811;DHT22;11067;48.788;9.208;2023-07-13T07:06:32;22.50;99.90
21811;DHT22;11067;48.788;9.208;2023-07-13T07:08:58;22.80;99.90
21811;DHT22;11067;48.788;9.208;2023-07-13T07:11:25;23.30;99.80
21811;DHT22;11067;48.788;9.208;2023-07-13T07:13:51;23.00;99.40
21811;DHT22;11067;48.788;9.208;2023-07-13T07:16:18;22.90;98.70
21811;DHT22;11067;48.788;9.208;2023-07-13T07:18:44;23.40;98.80
21811;DHT22;11067;48.788;9.208;2023-07-13T07:21:10;24.20;98.20
21811;DHT22;11067;48.788;9.208;2023-07-13T07:23:36;23.40;99.00
21811;DHT22;11067;48.788;9.208;2023-07-13T07:26:01;23.50;97.10
21811;DHT22;11067;48.788;9.208;2023-07-13T07:28:27;23.00;97.80
21811;DHT22;11067;48.788;9.208;2023-07-13T07:30:55;22.60;97.70
21811;DHT22;11067;48.788;9.208;2023-07-13T07:33:21;22.40;98.00
21811;DHT22;11067;48.788;9.208;2023-07-13T07:35:47;22.30;98.40
21811;DHT22;11067;48.788;9.208;2023-07-13T07:38:13;22.60;98.60
21811;DHT22;11067;48.788;9.208;2023-07-13T07:40:40;22.60;99.20
21811;DHT22;11067;48.788;9.208;2023-07-13T07:43:06;22.40;99.40
21811;DHT22;11067;48.788;9.208;2023-07-13T07:45:32;22.60;97.20
21811;DHT22;11067;48.788;9.208;2023-07-13T07:47:58;22.30;98.50
21811;DHT22;11067;48.788;9.208;2023-07-13T07:50:25;22.60;97.50
21811;DHT22;11067;48.788;9.208;2023-07-13T07:52:51;22.60;98.50
21811;DHT22;11067;48.788;9.208;2023-07-13T07:55:17;22.30;98.20
21811;DHT22;11067;48.788;9.208;2023-07-13T07:57:43;22.50;98.30
21811;DHT22;11067;48.788;9.208;2023-07-13T08:00:09;22.60;97.10
21811;DHT22;11067;48.788;9.208;2023-07-13T08:02:35;22.30;96.50
21811;DHT22;11067;48.788;9.208;2023-07-13T08:05:00;22.50;96.30
21811;DHT22;11067;48.788;9.208;2023-07-13T08:07:26;22.60;96.40
21811;DHT22;11067;48.788;9.208;2023-07-13T08:09:54;22.80;95.60
21811;DHT22;11067;48.788;9.208;2023-07-13T08:12:20;22.70;95.90
21811;DHT22;11067;48.788;9.208;2023-07-13T08:14:49;22.90;95.70
21811;DHT22;11067;48.788;9.208;2023-07-13T08:17:19;23.20;96.00
21811;DHT22;11067;48.788;9.208;2023-07-13T08:19:45;23.20;95.20
21811;DHT22;11067;48.788;9.208;2023-07-13T08:22:11;23.20;94.00
21811;DHT22;11067;48.788;9.208;2023-07-13T08:24:36;22.80;94.30
21811;DHT22;11067;48.788;9.208;2023-07-13T08:27:02;22.80;94.60
21811;DHT22;11067;48.788;9.208;2023-07-13T08:29:27;22.80;94.40
21811;DHT22;11067;48.788;9.208;2023-07-13T08:31:53;22.60;94.40
21811;DHT22;11067;48.788;9.208;2023-07-13T08:34:19;22.90;94.80
21811;DHT22;11067;48.788;9.208;2023-07-13T08:36:46;22.80;94.90
21811;DHT22;11067;48.788;9.208;2023-07-13T08:39:11;23.20;94.80
21811;DHT22;11067;48.788;9.208;2023-07-13T08:41:37;23.40;94.60
21811;DHT22;11067;48.788;9.208;2023-07-13T08:44:05;23.40;94.80
21811;DHT22;11067;48.788;9.208;2023-07-13T08:46:36;23.70;94.30
21811;DHT22;11067;48.788;9.208;2023-07-13T08:49:17;23.50;94.10
21811;DHT22;11067;48.788;9.208;2023-07-13T08:51:54;23.50;94.40
21811;DHT22;11067;48.788;9.208;2023-07-13T08:54:29;23.70;95.10
21811;DHT22;11067;48.788;9.208;2023-07-13T08:56:57;23.80;94.40
21811;DHT22;11067;48.788;9.208;2023-07-13T08:59:27;23.80;94.30
21811;DHT22;11067;48.788;9.208;2023-07-13T09:04:45;23.50;95.20
21811;DHT22;11067;48.788;9.208;2023-07-13T09:17:51;24.20;93.70
21811;DHT22;11067;48.788;9.208;2023-07-13T09:20:29;24.20;93.10
21811;DHT22;11067;48.788;9.208;2023-07-13T09:22:56;24.10;93.50
21811;DHT22;11067;48.788;9.208;2023-07-13T09:25:33;23.80;92.70
21811;DHT22;11067;48.788;9.208;2023-07-13T09:28:20;23.70;93.20
21811;DHT22;11067;48.788;9.208;2023-07-13T09:33:26;23.90;93.60
21811;DHT22;11067;48.788;9.208;2023-07-13T09:35:55;23.80;92.90
21811;DHT22;11067;48.788;9.208;2023-07-13T09:38:22;23.90;93.20
21811;DHT22;11067;48.788;9.208;2023-07-13T09:44:10;24.90;91.80
21811;DHT22;11067;48.788;9.208;2023-07-13T09:46:38;24.90;91.80
21811;DHT22;11067;48.788;9.208;2023-07-13T09:49:04;24.70;91.70
21811;DHT22;11067;48.788;9.208;2023-07-13T09:51:30;25.00;91.10
21811;DHT22;11067;48.788;9.208;2023-07-13T09:53:55;24.40;88.90
21811;DHT22;11067;48.788;9.208;2023-07-13T09:56:25;24.10;90.70
21811;DHT22;11067;48.788;9.208;2023-07-13T09:58:51;24.20;91.20
21811;DHT22;11067;48.788;9.208;2023-07-13T10:01:35;24.10;91.30
21811;DHT22;11067;48.788;9.208;2023-07-13T10:04:01;24.50;91.80
21811;DHT22;11067;48.788;9.208;2023-07-13T10:06:27;24.40;90.70
21811;DHT22;11067;48.788;9.208;2023-07-13T10:08:55;24.50;90.60
21811;DHT22;11067;48.788;9.208;2023-07-13T10:11:22;24.60;90.60
21811;DHT22;11067;48.788;9.208;2023-07-13T10:13:56;24.70;90.90
21811;DHT22;11067;48.788;9.208;2023-07-13T10:16:25;24.70;88.80
21811;DHT22;11067;48.788;9.208;2023-07-13T10:19:05;24.70;89.90
21811;DHT22;11067;48.788;9.208;2023-07-13T10:21:55;24.50;89.20
21811;DHT22;11067;48.788;9.208;2023-07-13T10:24:26;25.00;90.00
21811;DHT22;11067;48.788;9.208;2023-07-13T10:29:34;25.10;89.90
21811;DHT22;11067;48.788;9.208;2023-07-13T10:32:01;25.10;89.10
21811;DHT22;11067;48.788;9.208;2023-07-13T10:34:27;25.30;86.20
21811;DHT22;11067;48.788;9.208;2023-07-13T10:36:53;24.70;86.00
21811;DHT22;11067;48.788;9.208;2023-07-13T10:39:21;24.60;87.00
21811;DHT22;11067;48.788;9.208;2023-07-13T10:41:55;24.90;86.00
21811;DHT22;11067;48.788;9.208;2023-07-13T10:44:26;24.60;86.00
21811;DHT22;11067;48.788;9.208;2023-07-13T10:46:57;25.10;84.90
21811;DHT22;11067;48.788;9.208;2023-07-13T10:49:25;25.10;84.20
21811;DHT22;11067;48.788;9.208;2023-07-13T10:51:52;25.50;83.30
21811;DHT22;11067;48.788;9.208;2023-07-13T10:54:21;24.80;84.70
21811;DHT22;11067;48.788;9.208;2023-07-13T10:56:50;25.10;85.00
21811;DHT22;11067;48.788;9.208;2023-07-13T10:59:17;25.10;85.70
21811;DHT22;11067;48.788;9.208;2023-07-13T11:04:40;24.70;85.30
21811;DHT22;11067;48.788;9.208;2023-07-13T11:07:19;24.60;84.70
21811;DHT22;11067;48.788;9.208;2023-07-13T11:09:50;24.90;86.40
21811;DHT22;11067;48.788;9.208;2023-07-13T11:12:28;25.10;85.60
21811;DHT22;11067;48.788;9.208;2023-07-13T11:23:07;25.30;83.30
21811;DHT22;11067;48.788;9.208;2023-07-13T11:25:34;24.70;85.40
21811;DHT22;11067;48.788;9.208;2023-07-13T11:30:38;25.30;87.80
21811;DHT22;11067;48.788;9.208;2023-07-13T11:33:10;25.70;85.90
21811;DHT22;11067;48.788;9.208;2023-07-13T11:38:50;26.00;81.70
21811;DHT22;11067;48.788;9.208;2023-07-13T11:43:36;26.00;79.50
21811;DHT22;11067;48.788;9.208;2023-07-13T11:46:22;25.90;81.00
21811;DHT22;11067;48.788;9.208;2023-07-13T11:48:49;25.90;80.20
21811;DHT22;11067;48.788;9.208;2023-07-13T11:51:25;25.80;79.90
21811;DHT22;11067;48.788;9.208;2023-07-13T11:53:54;25.80;79.80
21811;DHT22;11067;48.788;9.208;2023-07-13T11:56:22;25.30;81.00
21811;DHT22;11067;48.788;9.208;2023-07-13T11:58:51;25.30;81.50
21811;DHT22;11067;48.788;9.208;2023-07-13T12:01:22;25.50;81.50
21811;DHT22;11067;48.788;9.208;2023-07-13T12:03:49;25.10;80.60
21811;DHT22;11067;48.788;9.208;2023-07-13T12:08:56;24.90;83.00
21811;DHT22;11067;48.788;9.208;2023-07-13T12:11:22;25.90;82.30
21811;DHT22;11067;48.788;9.208;2023-07-13T12:13:47;25.80;78.00
21811;DHT22;11067;48.788;9.208;2023-07-13T12:18:47;26.40;78.30
21811;DHT22;11067;48.788;9.208;2023-07-13T12:21:17;26.30;76.70
21811;DHT22;11067;48.788;9.208;2023-07-13T12:23:44;26.00;77.90
21811;DHT22;11067;48.788;9.208;2023-07-13T12:26:12;25.80;77.40
21811;DHT22;11067;48.788;9.208;2023-07-13T12:28:46;25.80;78.20
21811;DHT22;11067;48.788;9.208;2023-07-13T12:31:42;26.00;76.70
21811;DHT22;11067;48.788;9.208;2023-07-13T12:34:14;26.50;76.20
21811;DHT22;11067;48.788;9.208;2023-07-13T12:36:47;26.40;76.00
21811;DHT22;11067;48.788;9.208;2023-07-13T12:39:37;26.30;77.40
21811;DHT22;11067;48.788;9.208;2023-07-13T12:44:57;26.30;72.90
21811;DHT22;11067;48.788;9.208;2023-07-13T12:47:24;26.00;72.30
21811;DHT22;11067;48.788;9.208;2023-07-13T12:49:55;25.60;73.40
21811;DHT22;11067;48.788;9.208;2023-07-13T12:52:23;25.50;73.60
21811;DHT22;11067;48.788;9.208;2023-07-13T12:54:55;26.10;73.00
21811;DHT22;11067;48.788;9.208;2023-07-13T12:57:22;26.70;71.20
21811;DHT22;11067;48.788;9.208;2023-07-13T12:59:54;26.30;70.20
21811;DHT22;11067;48.788;9.208;2023-07-13T13:02:35;26.50;71.20
21811;DHT22;11067;48.788;9.208;2023-07-13T13:05:02;26.70;68.60
21811;DHT22;11067;48.788;9.208;2023-07-13T13:07:29;26.50;70.80
21811;DHT22;11067;48.788;9.208;2023-07-13T13:09:55;26.40;69.00
21811;DHT22;11067;48.788;9.208;2023-07-13T13:12:22;26.50;69.70
21811;DHT22;11067;48.788;9.208;2023-07-13T13:14:49;26.30;70.70
21811;DHT22;11067;48.788;9.208;2023-07-13T13:17:20;26.30;69.60
21811;DHT22;11067;48.788;9.208;2023-07-13T13:19:46;26.30;67.90
21811;DHT22;11067;48.788;9.208;2023-07-13T13:22:12;26.40;69.60
21811;DHT22;11067;48.788;9.208;2023-07-13T13:24:39;26.80;68.90
21811;DHT22;11067;48.788;9.208;2023-07-13T13:27:05;27.20;66.40
21811;DHT22;11067;48.788;9.208;2023-07-13T13:29:32;27.10;65.20
21811;DHT22;11067;48.788;9.208;2023-07-13T13:31:58;26.40;65.10
21811;DHT22;11067;48.788;9.208;2023-07-13T13:34:25;26.60;67.10
21811;DHT22;11067;48.788;9.208;2023-07-13T13:36:52;26.70;65.50
21811;DHT22;11067;48.788;9.208;2023-07-13T13:39:33;26.60;66.90
21811;DHT22;11067;48.788;9.208;2023-07-13T13:41:59;26.30;66.70
21811;DHT22;11067;48.788;9.208;2023-07-13T13:44:24;26.80;65.40
21811;DHT22;11067;48.788;9.208;2023-07-13T13:46:52;26.90;64.70
21811;DHT22;11067;48.788;9.208;2023-07-13T13:49:22;26.80;65.30
21811;DHT22;11067;48.788;9.208;2023-07-13T13:51:48;27.10;63.40
21811;DHT22;11067;48.788;9.208;2023-07-13T13:54:15;26.90;63.30
21811;DHT22;11067;48.788;9.208;2023-07-13T13:56:45;27.00;63.70
21811;DHT22;11067;48.788;9.208;2023-07-13T13:59:11;26.80;61.70
21811;DHT22;11067;48.788;9.208;2023-07-13T14:01:38;27.40;62.50
21811;DHT22;11067;48.788;9.208;2023-07-13T14:04:04;26.90;61.60
21811;DHT22;11067;48.788;9.208;2023-07-13T14:06:32;26.70;62.30
21811;DHT22;11067;48.788;9.208;2023-07-13T14:08:57;26.60;62.40
21811;DHT22;11067;48.788;9.208;2023-07-13T14:11:23;26.10;63.90
21811;DHT22;11067;48.788;9.208;2023-07-13T14:13:52;26.30;64.10
21811;DHT22;11067;48.788;9.208;2023-07-13T14:16:20;26.80;64.00
21811;DHT22;11067;48.788;9.208;2023-07-13T14:18:47;27.20;63.40
21811;DHT22;11067;48.788;9.208;2023-07-13T14:21:14;26.50;64.00
21811;DHT22;11067;48.788;9.208;2023-07-13T14:23:41;26.90;64.10
21811;DHT22;11067;48.788;9.208;2023-07-13T14:26:12;26.50;63.40
21811;DHT22;11067;48.788;9.208;2023-07-13T14:28:41;26.80;63.40
21811;DHT22;11067;48.788;9.208;2023-07-13T14:31:07;27.00;63.60
21811;DHT22;11067;48.788;9.208;2023-07-13T14:33:33;27.10;63.70
21811;DHT22;11067;48.788;9.208;2023-07-13T14:35:59;26.90;62.80
21811;DHT22;11067;48.788;9.208;2023-07-13T14:38:24;26.60;61.50
21811;DHT22;11067;48.788;9.208;2023-07-13T14:40:50;26.60;60.50
21811;DHT22;11067;48.788;9.208;2023-07-13T14:43:16;26.70;59.60
21811;DHT22;11067;48.788;9.208;2023-07-13T14:45:44;27.00;59.60
21811;DHT22;11067;48.788;9.208;2023-07-13T14:48:16;26.80;59.80
21811;DHT22;11067;48.788;9.208;2023-07-13T14:50:42;27.10;60.20
21811;DHT22;11067;48.788;9.208;2023-07-13T14:53:12;27.10;61.50
21811;DHT22;11067;48.788;9.208;2023-07-13T14:55:38;26.90;61.80
21811;DHT22;11067;48.788;9.208;2023-07-13T14:58:04;26.40;62.20
21811;DHT22;11067;48.788;9.208;2023-07-13T15:00:29;26.50;63.80
21811;DHT22;11067;48.788;9.208;2023-07-13T15:02:57;26.60;63.70
21811;DHT22;11067;48.788;9.208;2023-07-13T15:05:26;26.30;64.00
21811;DHT22;11067;48.788;9.208;2023-07-13T15:07:53;26.50;64.10
21811;DHT22;11067;48.788;9.208;2023-07-13T15:10:24;26.50;63.50
21811;DHT22;11067;48.788;9.208;2023-07-13T15:12:56;26.40;65.00
21811;DHT22;11067;48.788;9.208;2023-07-13T15:15:22;26.70;64.80
21811;DHT22;11067;48.788;9.208;2023-07-13T15:17:48;26.70;64.60
21811;DHT22;11067;48.788;9.208;2023-07-13T15:20:27;26.60;65.30
21811;DHT22;11067;48.788;9.208;2023-07-13T15:22:54;26.60;64.20
21811;DHT22;11067;48.788;9.208;2023-07-13T15:25:26;26.60;64.60
21811;DHT22;11067;48.788;9.208;2023-07-13T15:27:53;26.60;65.90
21811;DHT22;11067;48.788;9.208;2023-07-13T15:30:19;26.80;64.80
21811;DHT22;11067;48.788;9.208;2023-07-13T15:32:46;26.40;63.80
21811;DHT22;11067;48.788;9.208;2023-07-13T15:35:20;26.50;62.60
21811;DHT22;11067;48.788;9.208;2023-07-13T15:37:47;26.70;63.20
21811;DHT22;11067;48.788;9.208;2023-07-13T15:40:13;26.90;63.70
21811;DHT22;11067;48.788;9.208;2023-07-13T15:42:43;26.50;64.50
21811;DHT22;11067;48.788;9.208;2023-07-13T15:45:22;26.70;64.40
21811;DHT22;11067;48.788;9.208;2023-07-13T15:47:50;26.60;62.10
21811;DHT22;11067;48.788;9.208;2023-07-13T15:50:21;26.60;62.10
21811;DHT22;11067;48.788;9.208;2023-07-13T15:52:49;27.00;62.10
21811;DHT22;11067;48.788;9.208;2023-07-13T15:55:15;26.60;62.20
21811;DHT22;11067;48.788;9.208;2023-07-13T15:57:47;26.50;61.80
21811;DHT22;11067;48.788;9.208;2023-07-13T16:00:20;26.50;62.10
21811;DHT22;11067;48.788;9.208;2023-07-13T16:02:46;26.50;62.80
21811;DHT22;11067;48.788;9.208;2023-07-13T16:05:12;26.00;62.10
21811;DHT22;11067;48.788;9.208;2023-07-13T16:07:38;26.30;63.40
21811;DHT22;11067;48.788;9.208;2023-07-13T16:10:04;26.30;62.00
21811;DHT22;11067;48.788;9.208;2023-07-13T16:12:29;26.00;63.10
21811;DHT22;11067;48.788;9.208;2023-07-13T16:14:55;25.90;63.60
21811;DHT22;11067;48.788;9.208;2023-07-13T16:17:20;25.90;64.80
21811;DHT22;11067;48.788;9.208;2023-07-13T16:19:46;26.20;64.40
21811;DHT22;11067;48.788;9.208;2023-07-13T16:22:17;26.30;63.00
21811;DHT22;11067;48.788;9.208;2023-07-13T16:24:43;26.60;62.70
21811;DHT22;11067;48.788;9.208;2023-07-13T16:27:11;26.40;62.00